createdAt,value
2022-10-18T00:00:28.570Z,102510.63
2022-10-18T00:03:34.724Z,102514.28
2022-10-18T00:06:42.614Z,102512.59
2022-10-18T00:09:48.060Z,102508.28
2022-10-18T00:12:53.563Z,102518.03
2022-10-18T00:20:41.664Z,102526.06
2022-10-18T00:23:51.949Z,102525.22
2022-10-18T00:27:14.691Z,102533.94
2022-10-18T00:30:24.045Z,102533.09
2022-10-18T00:33:46.043Z,102530.44
2022-10-18T00:37:00.907Z,102538.38
2022-10-18T00:40:12.423Z,102540.09
2022-10-18T00:43:25.024Z,102546.25
2022-10-18T00:46:49.221Z,102552.38
2022-10-18T00:50:05.596Z,102559.38
2022-10-18T00:53:33.879Z,102550.53
2022-10-18T00:56:53.289Z,102558.41
2022-10-18T01:00:11.114Z,102561.97
2022-10-18T01:03:22.693Z,102568.97
2022-10-18T01:06:36.470Z,102556.81
2022-10-18T01:09:56.434Z,102559.50
2022-10-18T01:13:50.737Z,102564.81
2022-10-18T01:22:13.644Z,102562.13
2022-10-18T01:26:19.729Z,102560.34
2022-10-18T01:30:10.716Z,102562.09
2022-10-18T01:33:56.839Z,102562.94
2022-10-18T01:37:26.732Z,102550.72
2022-10-18T01:40:41.266Z,102548.06
2022-10-18T01:44:22.847Z,102559.53
2022-10-18T01:47:54.388Z,102564.03
2022-10-18T01:51:17.876Z,102561.38
2022-10-18T01:54:53.494Z,102568.38
2022-10-18T01:59:13.830Z,102563.16
2022-10-18T02:03:20.807Z,102565.84
2022-10-18T02:06:55.811Z,102565.00
2022-10-18T02:10:39.830Z,102561.44
2022-10-18T02:14:25.678Z,102562.28
2022-10-18T02:17:39.076Z,102559.59
2022-10-18T02:21:05.154Z,102564.03
2022-10-18T02:24:20.879Z,102552.59
2022-10-18T02:27:35.957Z,102556.25
2022-10-18T02:31:10.024Z,102557.19
2022-10-18T02:34:40.822Z,102571.38
2022-10-18T02:37:52.519Z,102563.50
2022-10-18T02:41:06.920Z,102559.91
2022-10-18T02:44:18.932Z,102545.97
2022-10-18T02:47:31.451Z,102553.09
2022-10-18T02:50:52.911Z,102550.44
2022-10-18T02:54:07.716Z,102552.28
2022-10-18T02:57:17.958Z,102552.28
2022-10-18T03:00:34.003Z,102552.16
2022-10-18T03:03:46.675Z,102546.06
2022-10-18T03:07:00.796Z,102544.47
2022-10-18T03:10:19.077Z,102540.19
2022-10-18T03:14:07.450Z,102540.41
2022-10-18T03:17:35.885Z,102537.81
2022-10-18T03:20:50.066Z,102548.47
2022-10-18T03:24:05.986Z,102547.69
2022-10-18T03:27:20.499Z,102536.22
2022-10-18T03:30:30.274Z,102543.38
2022-10-18T03:33:41.115Z,102544.19
2022-10-18T03:37:01.012Z,102546.81
2022-10-18T03:40:16.751Z,102553.75
2022-10-18T03:43:30.179Z,102554.69
2022-10-18T03:46:55.568Z,102559.88
2022-10-18T03:50:13.205Z,102552.00
2022-10-18T03:53:29.734Z,102543.09
2022-10-18T03:56:43.736Z,102542.25
2022-10-18T03:59:57.263Z,102545.75
2022-10-18T04:03:15.306Z,102552.91
2022-10-18T04:06:33.021Z,102552.81
2022-10-18T04:10:36.773Z,102543.34
2022-10-18T04:13:47.861Z,102543.28
2022-10-18T04:17:04.654Z,102540.69
2022-10-18T04:20:22.461Z,102532.03
2022-10-18T04:23:38.995Z,102535.66
2022-10-18T04:26:50.593Z,102535.75
2022-10-18T04:30:07.432Z,102541.91
2022-10-18T04:33:21.045Z,102547.34
2022-10-18T04:36:37.711Z,102539.50
2022-10-18T04:39:53.438Z,102538.59
2022-10-18T04:43:03.409Z,102529.91
2022-10-18T04:46:18.352Z,102529.91
2022-10-18T04:49:34.783Z,102537.88
2022-10-18T04:52:42.454Z,102537.97
2022-10-18T04:55:52.001Z,102537.97
2022-10-18T04:59:04.871Z,102537.13
2022-10-18T05:02:16.322Z,102536.19
2022-10-18T05:05:43.484Z,102541.41
2022-10-18T05:08:59.326Z,102533.50
2022-10-18T05:12:05.848Z,102538.84
2022-10-18T05:15:18.701Z,102539.66
2022-10-18T05:18:26.200Z,102540.63
2022-10-18T05:21:41.217Z,102536.38
2022-10-18T05:24:51.573Z,102528.47
2022-10-18T05:28:03.408Z,102530.16
2022-10-18T05:31:17.717Z,102518.72
2022-10-18T05:34:22.648Z,102515.13
2022-10-18T05:37:31.909Z,102516.88
2022-10-18T05:40:39.956Z,102525.69
2022-10-18T05:43:44.620Z,102521.31
2022-10-18T05:46:55.202Z,102529.16
2022-10-18T05:50:00.045Z,102533.56
2022-10-18T05:53:12.814Z,102535.44
2022-10-18T05:56:36.080Z,102527.63
2022-10-18T05:59:47.260Z,102534.72
2022-10-18T06:02:59.386Z,102529.41
2022-10-18T06:06:27.245Z,102530.22
2022-10-18T06:09:35.997Z,102532.81
2022-10-18T06:12:43.675Z,102525.88
2022-10-18T06:16:03.329Z,102524.13
2022-10-18T06:19:07.763Z,102525.97
2022-10-18T06:22:12.965Z,102530.47
2022-10-18T06:25:17.759Z,102538.38
2022-10-18T06:28:34.097Z,102543.78
2022-10-18T06:32:04.520Z,102545.47
2022-10-18T06:35:09.797Z,102553.41
2022-10-18T06:38:14.947Z,102551.56
2022-10-18T06:41:19.781Z,102565.69
2022-10-18T06:44:24.538Z,102571.06
2022-10-18T06:47:28.693Z,102568.41
2022-10-18T06:50:33.118Z,102566.78
2022-10-18T06:53:44.177Z,102574.84
2022-10-18T06:56:58.359Z,102574.94
2022-10-18T07:00:10.645Z,102580.13
2022-10-18T07:03:15.072Z,102592.34
2022-10-18T07:06:21.100Z,102575.81
2022-10-18T07:09:25.607Z,102591.63
2022-10-18T07:12:31.272Z,102581.09
2022-10-18T07:15:38.632Z,102583.63
2022-10-18T07:18:46.888Z,102599.44
2022-10-18T07:21:51.380Z,102587.88
2022-10-18T07:24:55.597Z,102593.00
2022-10-18T07:27:59.924Z,102592.97
2022-10-18T07:31:08.846Z,102590.38
2022-10-18T07:34:14.289Z,102602.00
2022-10-18T07:37:18.782Z,102598.41
2022-10-18T07:40:23.289Z,102603.66
2022-10-18T07:43:28.638Z,102595.84
2022-10-18T07:46:33.263Z,102586.34
2022-10-18T07:49:37.656Z,102591.59
2022-10-18T07:52:42.090Z,102612.50
2022-10-18T07:55:46.674Z,102610.72
2022-10-18T07:58:53.577Z,102611.50
2022-10-18T08:01:57.959Z,102604.63
2022-10-18T08:05:01.818Z,102597.63
2022-10-18T08:08:08.117Z,102624.09
2022-10-18T08:11:16.779Z,102623.19
2022-10-18T08:14:21.097Z,102635.59
2022-10-18T08:17:25.463Z,102635.56
2022-10-18T08:20:32.010Z,102620.69
2022-10-18T08:23:37.472Z,102643.53
2022-10-18T08:26:41.939Z,102639.19
2022-10-18T08:29:46.195Z,102642.72
2022-10-18T08:32:50.625Z,102641.88
2022-10-18T08:35:57.351Z,102636.41
2022-10-18T08:39:02.982Z,102633.06
2022-10-18T08:42:18.310Z,102638.28
2022-10-18T08:45:37.731Z,102635.56
2022-10-18T08:48:52.997Z,102637.94
2022-10-18T08:51:58.420Z,102647.53
2022-10-18T08:55:29.196Z,102646.47
2022-10-18T08:58:33.893Z,102654.91
2022-10-18T09:01:56.355Z,102656.50
2022-10-18T09:05:27.391Z,102652.91
2022-10-18T09:09:17.940Z,102660.56
2022-10-18T09:13:02.308Z,102645.63
2022-10-18T09:16:36.657Z,102651.84
2022-10-18T09:20:15.295Z,102653.69
2022-10-18T09:23:27.683Z,102649.06
2022-10-18T09:26:47.630Z,102647.75
2022-10-18T09:30:13.585Z,102644.09
2022-10-18T09:33:32.344Z,102635.25
2022-10-18T09:36:38.971Z,102634.09
2022-10-18T09:39:44.878Z,102625.88
2022-10-18T09:42:55.753Z,102623.19
2022-10-18T09:46:00.711Z,102616.16
2022-10-18T09:49:22.035Z,102603.34
2022-10-18T09:52:52.092Z,102601.66
2022-10-18T09:56:07.497Z,102594.03
2022-10-18T09:59:48.428Z,102587.72
2022-10-18T10:02:53.351Z,102576.22
2022-10-18T10:06:17.979Z,102574.91
2022-10-18T10:09:36.470Z,102560.91
2022-10-18T10:12:44.562Z,102563.75
2022-10-18T10:16:10.024Z,102562.06
2022-10-18T10:19:29.370Z,102554.16
2022-10-18T10:22:49.254Z,102544.28
2022-10-18T10:26:23.585Z,102527.53
2022-10-18T10:29:48.848Z,102506.78
2022-10-18T10:32:57.680Z,102495.47
2022-10-18T10:36:11.527Z,102495.19
2022-10-18T10:39:22.675Z,102486.81
2022-10-18T10:42:29.091Z,102488.91
2022-10-18T10:45:41.966Z,102484.50
2022-10-18T10:49:21.620Z,102488.59
2022-10-18T10:52:31.026Z,102477.34
2022-10-18T10:55:40.705Z,102477.19
2022-10-18T10:58:45.771Z,102474.97
2022-10-18T11:02:26.123Z,102470.97
2022-10-18T11:05:33.556Z,102474.78
2022-10-18T11:08:43.745Z,102473.53
2022-10-18T11:12:18.464Z,102457.47
2022-10-18T11:15:48.386Z,102456.16
2022-10-18T11:18:57.669Z,102441.81
2022-10-18T11:22:09.577Z,102436.94
2022-10-18T11:25:16.778Z,102444.34
2022-10-18T11:28:38.578Z,102452.09
2022-10-18T11:32:17.798Z,102445.00
2022-10-18T11:35:59.110Z,102459.78
2022-10-18T11:39:29.842Z,102462.69
2022-10-18T11:42:56.725Z,102467.38
2022-10-18T11:46:30.935Z,102443.47
2022-10-18T11:49:51.267Z,102427.19
2022-10-18T11:53:30.946Z,102421.50
2022-10-18T11:56:59.675Z,102430.28
2022-10-18T12:00:39.627Z,102427.97
2022-10-18T12:04:26.596Z,102428.72
2022-10-18T12:07:41.779Z,102424.53
2022-10-18T12:11:07.977Z,102417.44
2022-10-18T12:14:28.093Z,102423.09
2022-10-18T12:17:50.054Z,102411.00
2022-10-18T12:21:02.752Z,102413.94
2022-10-18T12:24:18.554Z,102416.03
2022-10-18T12:27:39.604Z,102420.72
2022-10-18T12:31:31.440Z,102407.09
2022-10-18T12:34:55.400Z,102394.88
2022-10-18T12:38:23.407Z,102407.63
2022-10-18T12:41:38.190Z,102413.22
2022-10-18T12:44:43.221Z,102396.63
2022-10-18T12:47:47.300Z,102397.09
2022-10-18T12:51:19.862Z,102371.50
2022-10-18T12:54:29.556Z,102369.78
2022-10-18T12:57:52.199Z,102361.00
2022-10-18T13:01:09.170Z,102369.06
2022-10-18T13:04:39.789Z,102394.66
2022-10-18T13:07:57.043Z,102400.78
2022-10-18T13:11:39.755Z,102386.06
2022-10-18T13:15:25.333Z,102390.41
2022-10-18T13:20:02.904Z,102383.63
2022-10-18T13:23:53.809Z,102373.13
2022-10-18T13:27:42.809Z,102365.13
2022-10-18T13:31:25.305Z,102366.97
2022-10-18T13:34:42.984Z,102365.50
2022-10-18T13:38:34.918Z,102381.50
2022-10-18T13:41:53.640Z,102391.81
2022-10-18T13:45:35.953Z,102368.75
2022-10-18T13:48:42.832Z,102367.09
2022-10-18T13:52:27.707Z,102366.28
2022-10-18T13:56:13.562Z,102381.50
2022-10-18T13:59:59.231Z,102393.19
2022-10-18T14:03:56.393Z,102394.28
2022-10-18T14:07:06.746Z,102382.94
2022-10-18T14:10:43.795Z,102395.41
2022-10-18T14:14:16.370Z,102402.63
2022-10-18T14:17:56.998Z,102386.75
2022-10-18T14:21:13.698Z,102403.53
2022-10-18T14:24:29.065Z,102402.84
2022-10-18T14:27:37.078Z,102402.31
2022-10-18T14:31:06.444Z,102411.38
2022-10-18T14:34:18.440Z,102408.06
2022-10-18T14:37:37.473Z,102405.53
2022-10-18T14:40:46.548Z,102406.59
2022-10-18T14:44:09.857Z,102386.38
2022-10-18T14:47:22.357Z,102382.88
